sensor_id;sensor_type;location;lat;lon;timestamp;pressure;altitude;pressure_sealevel;temperature;humidity
71126;BME280;58785;55.566;38.058;2024-03-25T00:02:00;98525.38;;;6.11;86.67
71126;BME280;58785;55.566;38.058;2024-03-25T00:04:26;98523.88;;;6.08;86.15
71126;BME280;58785;55.566;38.058;2024-03-25T00:06:52;98526.06;;;6.13;85.99
71126;BME280;58785;55.566;38.058;2024-03-25T00:09:18;98538.97;;;6.16;86.40
71126;BME280;58785;55.566;38.058;2024-03-25T00:11:45;98549.06;;;6.20;86.22
71126;BME280;58785;55.566;38.058;2024-03-25T00:14:11;98554.88;;;6.24;86.10
71126;BME280;58785;55.566;38.058;2024-03-25T00:16:37;98573.03;;;6.19;85.85
71126;BME280;58785;55.566;38.058;2024-03-25T00:19:03;98582.09;;;6.08;85.63
71126;BME280;58785;55.566;38.058;2024-03-25T00:21:29;98603.84;;;5.94;84.85
71126;BME280;58785;55.566;38.058;2024-03-25T00:23:54;98609.47;;;5.81;84.85
71126;BME280;58785;55.566;38.058;2024-03-25T00:26:23;98615.41;;;5.75;85.08
71126;BME280;58785;55.566;38.058;2024-03-25T00:28:49;98617.97;;;5.67;84.57
71126;BME280;58785;55.566;38.058;2024-03-25T00:31:15;98615.50;;;5.65;84.85
71126;BME280;58785;55.566;38.058;2024-03-25T00:33:41;98617.75;;;5.60;84.91
71126;BME280;58785;55.566;38.058;2024-03-25T00:36:07;98614.28;;;5.60;84.56
71126;BME280;58785;55.566;38.058;2024-03-25T00:38:33;98617.06;;;5.58;84.32
71126;BME280;58785;55.566;38.058;2024-03-25T00:40:59;98629.63;;;5.56;83.95
71126;BME280;58785;55.566;38.058;2024-03-25T00:43:24;98635.38;;;5.52;84.15
71126;BME280;58785;55.566;38.058;2024-03-25T00:45:50;98625.41;;;5.45;83.52
71126;BME280;58785;55.566;38.058;2024-03-25T00:48:16;98644.50;;;5.39;83.95
71126;BME280;58785;55.566;38.058;2024-03-25T00:50:42;98644.13;;;5.34;83.33
71126;BME280;58785;55.566;38.058;2024-03-25T00:53:08;98633.63;;;5.25;82.66
71126;BME280;58785;55.566;38.058;2024-03-25T00:55:34;98640.13;;;5.12;82.79
71126;BME280;58785;55.566;38.058;2024-03-25T00:58:03;98646.72;;;4.99;82.45
71126;BME280;58785;55.566;38.058;2024-03-25T01:00:29;98659.69;;;4.92;82.59
71126;BME280;58785;55.566;38.058;2024-03-25T01:02:55;98676.28;;;4.84;81.76
71126;BME280;58785;55.566;38.058;2024-03-25T01:05:21;98679.63;;;4.77;81.85
71126;BME280;58785;55.566;38.058;2024-03-25T01:07:46;98675.06;;;4.69;80.89
71126;BME280;58785;55.566;38.058;2024-03-25T01:10:12;98681.50;;;4.67;81.33
71126;BME280;58785;55.566;38.058;2024-03-25T01:12:38;98684.28;;;4.65;80.79
71126;BME280;58785;55.566;38.058;2024-03-25T01:15:04;98682.75;;;4.63;80.08
71126;BME280;58785;55.566;38.058;2024-03-25T01:17:31;98694.16;;;4.63;80.52
71126;BME280;58785;55.566;38.058;2024-03-25T01:19:57;98696.66;;;4.65;80.33
71126;BME280;58785;55.566;38.058;2024-03-25T01:22:22;98702.59;;;4.67;80.05
71126;BME280;58785;55.566;38.058;2024-03-25T01:24:48;98702.59;;;4.67;80.11
71126;BME280;58785;55.566;38.058;2024-03-25T01:27:13;98713.69;;;4.70;80.00
71126;BME280;58785;55.566;38.058;2024-03-25T01:29:39;98708.16;;;4.73;80.19
71126;BME280;58785;55.566;38.058;2024-03-25T01:32:05;98714.41;;;4.72;79.94
71126;BME280;58785;55.566;38.058;2024-03-25T01:34:31;98706.50;;;4.72;79.62
71126;BME280;58785;55.566;38.058;2024-03-25T01:36:56;98709.13;;;4.72;79.88
71126;BME280;58785;55.566;38.058;2024-03-25T01:39:22;98718.72;;;4.73;80.09
71126;BME280;58785;55.566;38.058;2024-03-25T01:41:50;98720.94;;;4.68;79.83
71126;BME280;58785;55.566;38.058;2024-03-25T01:44:16;98714.97;;;4.66;79.79
71126;BME280;58785;55.566;38.058;2024-03-25T01:46:42;98729.16;;;4.65;79.59
71126;BME280;58785;55.566;38.058;2024-03-25T01:49:08;98726.38;;;4.67;79.98
71126;BME280;58785;55.566;38.058;2024-03-25T01:51:35;98730.53;;;4.69;79.47
71126;BME280;58785;55.566;38.058;2024-03-25T01:54:02;98733.16;;;4.69;79.52
71126;BME280;58785;55.566;38.058;2024-03-25T01:56:31;98746.50;;;4.68;79.63
71126;BME280;58785;55.566;38.058;2024-03-25T01:58:58;98758.59;;;4.70;79.30
71126;BME280;58785;55.566;38.058;2024-03-25T02:01:24;98765.69;;;4.70;79.90
71126;BME280;58785;55.566;38.058;2024-03-25T02:03:50;98769.44;;;4.67;79.68
71126;BME280;58785;55.566;38.058;2024-03-25T02:06:18;98761.22;;;4.70;79.20
71126;BME280;58785;55.566;38.058;2024-03-25T02:08:45;98763.75;;;4.72;79.52
71126;BME280;58785;55.566;38.058;2024-03-25T02:11:13;98769.03;;;4.72;79.73
71126;BME280;58785;55.566;38.058;2024-03-25T02:13:39;98775.97;;;4.73;79.14
71126;BME280;58785;55.566;38.058;2024-03-25T02:16:06;98764.69;;;4.71;78.92
71126;BME280;58785;55.566;38.058;2024-03-25T02:18:52;98776.38;;;4.68;79.17
71126;BME280;58785;55.566;38.058;2024-03-25T02:21:18;98788.75;;;4.68;79.05
71126;BME280;58785;55.566;38.058;2024-03-25T02:23:45;98784.31;;;4.68;78.75
71126;BME280;58785;55.566;38.058;2024-03-25T02:26:12;98780.69;;;4.69;79.05
71126;BME280;58785;55.566;38.058;2024-03-25T02:28:38;98782.63;;;4.67;79.36
71126;BME280;58785;55.566;38.058;2024-03-25T02:31:04;98795.16;;;4.65;78.69
71126;BME280;58785;55.566;38.058;2024-03-25T02:33:29;98799.59;;;4.65;79.05
71126;BME280;58785;55.566;38.058;2024-03-25T02:35:55;98806.56;;;4.66;78.86
71126;BME280;58785;55.566;38.058;2024-03-25T02:38:21;98800.72;;;4.62;78.55
71126;BME280;58785;55.566;38.058;2024-03-25T02:40:46;98798.22;;;4.60;78.33
71126;BME280;58785;55.566;38.058;2024-03-25T02:43:13;98810.56;;;4.60;78.72
71126;BME280;58785;55.566;38.058;2024-03-25T02:45:39;98813.38;;;4.58;78.82
71126;BME280;58785;55.566;38.058;2024-03-25T02:48:05;98810.88;;;4.57;78.71
71126;BME280;58785;55.566;38.058;2024-03-25T02:50:30;98812.41;;;4.50;78.41
71126;BME280;58785;55.566;38.058;2024-03-25T02:52:56;98813.66;;;4.46;78.20
71126;BME280;58785;55.566;38.058;2024-03-25T02:55:22;98820.47;;;4.39;78.38
71126;BME280;58785;55.566;38.058;2024-03-25T02:57:47;98825.34;;;4.33;78.43
71126;BME280;58785;55.566;38.058;2024-03-25T03:00:13;98821.59;;;4.26;78.70
71126;BME280;58785;55.566;38.058;2024-03-25T03:02:39;98814.22;;;4.20;78.44
71126;BME280;58785;55.566;38.058;2024-03-25T03:05:05;98825.75;;;4.29;78.39
71126;BME280;58785;55.566;38.058;2024-03-25T03:07:30;98832.44;;;4.33;78.09
71126;BME280;58785;55.566;38.058;2024-03-25T03:09:56;98832.00;;;4.38;78.50
71126;BME280;58785;55.566;38.058;2024-03-25T03:12:22;98833.13;;;4.35;77.73
71126;BME280;58785;55.566;38.058;2024-03-25T03:14:47;98847.16;;;4.36;78.36
71126;BME280;58785;55.566;38.058;2024-03-25T03:17:14;98852.28;;;4.37;78.22
71126;BME280;58785;55.566;38.058;2024-03-25T03:19:39;98857.28;;;4.40;78.09
71126;BME280;58785;55.566;38.058;2024-03-25T03:22:05;98850.47;;;4.38;78.07
71126;BME280;58785;55.566;38.058;2024-03-25T03:24:31;98865.06;;;4.42;77.98
71126;BME280;58785;55.566;38.058;2024-03-25T03:26:56;98858.00;;;4.42;77.63
71126;BME280;58785;55.566;38.058;2024-03-25T03:29:22;98860.63;;;4.42;77.62
71126;BME280;58785;55.566;38.058;2024-03-25T03:31:48;98866.03;;;4.41;77.57
71126;BME280;58785;55.566;38.058;2024-03-25T03:34:13;98870.59;;;4.39;77.54
71126;BME280;58785;55.566;38.058;2024-03-25T03:36:39;98884.78;;;4.38;77.63
71126;BME280;58785;55.566;38.058;2024-03-25T03:39:06;98890.19;;;4.36;77.58
71126;BME280;58785;55.566;38.058;2024-03-25T03:41:34;98875.47;;;4.33;77.47
71126;BME280;58785;55.566;38.058;2024-03-25T03:44:00;98877.56;;;4.40;77.25
71126;BME280;58785;55.566;38.058;2024-03-25T03:46:25;98881.47;;;4.45;77.04
71126;BME280;58785;55.566;38.058;2024-03-25T03:48:51;98880.19;;;4.49;76.93
71126;BME280;58785;55.566;38.058;2024-03-25T03:51:16;98878.97;;;4.53;77.03
71126;BME280;58785;55.566;38.058;2024-03-25T03:53:42;98879.50;;;4.57;76.48
71126;BME280;58785;55.566;38.058;2024-03-25T03:56:08;98890.75;;;4.59;76.91
71126;BME280;58785;55.566;38.058;2024-03-25T03:58:34;98888.94;;;4.59;76.79
71126;BME280;58785;55.566;38.058;2024-03-25T04:01:01;98886.44;;;4.58;76.66
71126;BME280;58785;55.566;38.058;2024-03-25T04:03:27;98903.41;;;4.65;76.81
71126;BME280;58785;55.566;38.058;2024-03-25T04:05:52;98910.78;;;4.71;76.38
71126;BME280;58785;55.566;38.058;2024-03-25T04:08:18;98913.97;;;4.75;76.22
71126;BME280;58785;55.566;38.058;2024-03-25T04:10:45;98915.47;;;4.77;76.29
71126;BME280;58785;55.566;38.058;2024-03-25T04:13:11;98922.56;;;4.86;76.42
71126;BME280;58785;55.566;38.058;2024-03-25T04:15:40;98925.22;;;4.86;76.13
71126;BME280;58785;55.566;38.058;2024-03-25T04:18:07;98946.03;;;4.89;75.60
71126;BME280;58785;55.566;38.058;2024-03-25T04:20:37;98939.38;;;4.85;75.74
71126;BME280;58785;55.566;38.058;2024-03-25T04:23:04;98944.97;;;4.82;76.17
71126;BME280;58785;55.566;38.058;2024-03-25T04:25:33;98948.16;;;4.86;75.97
71126;BME280;58785;55.566;38.058;2024-03-25T04:27:59;98961.06;;;4.89;76.14
71126;BME280;58785;55.566;38.058;2024-03-25T04:30:25;98959.41;;;4.88;75.63
71126;BME280;58785;55.566;38.058;2024-03-25T04:32:51;98968.00;;;4.90;75.44
71126;BME280;58785;55.566;38.058;2024-03-25T04:35:17;98967.59;;;4.95;75.71
71126;BME280;58785;55.566;38.058;2024-03-25T04:37:42;98970.09;;;4.96;75.03
71126;BME280;58785;55.566;38.058;2024-03-25T04:40:09;98969.56;;;5.02;75.03
71126;BME280;58785;55.566;38.058;2024-03-25T04:42:35;98969.56;;;5.02;74.84
71126;BME280;58785;55.566;38.058;2024-03-25T04:45:02;98977.19;;;5.05;75.13
71126;BME280;58785;55.566;38.058;2024-03-25T04:47:31;98978.56;;;5.09;74.79
71126;BME280;58785;55.566;38.058;2024-03-25T04:50:00;98982.31;;;5.16;74.66
71126;BME280;58785;55.566;38.058;2024-03-25T04:52:26;98985.09;;;5.15;74.51
71126;BME280;58785;55.566;38.058;2024-03-25T04:54:51;98982.75;;;5.22;74.53
71126;BME280;58785;55.566;38.058;2024-03-25T04:57:17;98987.06;;;5.23;74.55
71126;BME280;58785;55.566;38.058;2024-03-25T04:59:43;98996.34;;;5.27;74.06
71126;BME280;58785;55.566;38.058;2024-03-25T05:02:09;99002.47;;;5.27;74.37
71126;BME280;58785;55.566;38.058;2024-03-25T05:04:35;99011.94;;;5.20;73.56
71126;BME280;58785;55.566;38.058;2024-03-25T05:07:01;99003.47;;;5.16;74.45
71126;BME280;58785;55.566;38.058;2024-03-25T05:09:26;99021.81;;;5.18;73.53
71126;BME280;58785;55.566;38.058;2024-03-25T05:11:52;99016.28;;;5.21;73.54
71126;BME280;58785;55.566;38.058;2024-03-25T05:14:18;99039.63;;;5.26;72.78
71126;BME280;58785;55.566;38.058;2024-03-25T05:16:46;99031.41;;;5.29;73.14
71126;BME280;58785;55.566;38.058;2024-03-25T05:19:12;99050.47;;;5.42;73.22
71126;BME280;58785;55.566;38.058;2024-03-25T05:21:38;99051.72;;;5.38;72.57
71126;BME280;58785;55.566;38.058;2024-03-25T05:24:04;99051.16;;;5.34;72.87
71126;BME280;58785;55.566;38.058;2024-03-25T05:26:29;99057.28;;;5.35;72.53
71126;BME280;58785;55.566;38.058;2024-03-25T05:28:56;99056.44;;;5.34;72.43
71126;BME280;58785;55.566;38.058;2024-03-25T05:31:22;99069.91;;;5.41;72.38
71126;BME280;58785;55.566;38.058;2024-03-25T05:33:48;99066.59;;;5.39;72.25
71126;BME280;58785;55.566;38.058;2024-03-25T05:36:14;99075.22;;;5.41;71.93
71126;BME280;58785;55.566;38.058;2024-03-25T05:38:40;99075.78;;;5.44;72.34
71126;BME280;58785;55.566;38.058;2024-03-25T05:41:08;99069.06;;;5.50;72.29
71126;BME280;58785;55.566;38.058;2024-03-25T05:43:34;99083.41;;;5.57;72.42
71126;BME280;58785;55.566;38.058;2024-03-25T05:45:59;99069.22;;;5.58;71.92
71126;BME280;58785;55.566;38.058;2024-03-25T05:48:25;99077.97;;;5.68;71.76
71126;BME280;58785;55.566;38.058;2024-03-25T05:51:17;99081.00;;;5.83;71.03
71126;BME280;58785;55.566;38.058;2024-03-25T05:53:44;99080.59;;;5.97;71.12
71126;BME280;58785;55.566;38.058;2024-03-25T05:56:10;99083.84;;;6.19;70.94
71126;BME280;58785;55.566;38.058;2024-03-25T05:58:35;99084.16;;;6.53;69.61
71126;BME280;58785;55.566;38.058;2024-03-25T06:01:01;99096.69;;;6.78;68.90
71126;BME280;58785;55.566;38.058;2024-03-25T06:03:26;99092.31;;;6.87;69.13
71126;BME280;58785;55.566;38.058;2024-03-25T06:05:52;99092.84;;;6.90;68.43
71126;BME280;58785;55.566;38.058;2024-03-25T06:08:18;99098.00;;;7.10;68.15
71126;BME280;58785;55.566;38.058;2024-03-25T06:10:50;99100.22;;;7.14;67.55
71126;BME280;58785;55.566;38.058;2024-03-25T06:13:16;99099.41;;;7.14;68.27
71126;BME280;58785;55.566;38.058;2024-03-25T06:15:42;99108.25;;;7.05;67.83
71126;BME280;58785;55.566;38.058;2024-03-25T06:18:08;99107.25;;;7.06;68.38
71126;BME280;58785;55.566;38.058;2024-03-25T06:20:34;99117.84;;;7.06;67.78
71126;BME280;58785;55.566;38.058;2024-03-25T06:23:00;99119.22;;;6.92;68.37
71126;BME280;58785;55.566;38.058;2024-03-25T06:25:27;99121.56;;;6.95;67.54
71126;BME280;58785;55.566;38.058;2024-03-25T06:27:54;99135.53;;;6.87;67.37
71126;BME280;58785;55.566;38.058;2024-03-25T06:30:20;99136.41;;;6.78;67.79
71126;BME280;58785;55.566;38.058;2024-03-25T06:33:04;99142.84;;;6.76;67.69
71126;BME280;58785;55.566;38.058;2024-03-25T06:35:49;99153.72;;;6.82;68.11
71126;BME280;58785;55.566;38.058;2024-03-25T06:38:15;99168.47;;;6.85;67.39
71126;BME280;58785;55.566;38.058;2024-03-25T06:40:40;99170.81;;;6.88;67.11
71126;BME280;58785;55.566;38.058;2024-03-25T06:43:06;99170.09;;;6.96;66.96
71126;BME280;58785;55.566;38.058;2024-03-25T06:45:40;99180.69;;;6.96;66.84
71126;BME280;58785;55.566;38.058;2024-03-25T06:48:06;99176.84;;;7.08;66.46
71126;BME280;58785;55.566;38.058;2024-03-25T06:50:32;99172.63;;;7.15;66.81
71126;BME280;58785;55.566;38.058;2024-03-25T06:52:58;99187.81;;;7.23;66.55
71126;BME280;58785;55.566;38.058;2024-03-25T06:55:23;99192.28;;;7.40;65.67
71126;BME280;58785;55.566;38.058;2024-03-25T06:57:53;99196.25;;;7.54;66.26
71126;BME280;58785;55.566;38.058;2024-03-25T07:00:19;99204.59;;;7.76;65.79
71126;BME280;58785;55.566;38.058;2024-03-25T07:02:48;99207.34;;;8.11;64.95
71126;BME280;58785;55.566;38.058;2024-03-25T07:05:14;99208.81;;;8.23;64.52
71126;BME280;58785;55.566;38.058;2024-03-25T07:07:40;99213.63;;;8.45;64.19
71126;BME280;58785;55.566;38.058;2024-03-25T07:10:06;99210.94;;;8.71;63.64
71126;BME280;58785;55.566;38.058;2024-03-25T07:12:32;99213.94;;;8.68;63.96
71126;BME280;58785;55.566;38.058;2024-03-25T07:14:58;99217.81;;;8.74;63.61
71126;BME280;58785;55.566;38.058;2024-03-25T07:17:25;99228.00;;;8.86;63.12
71126;BME280;58785;55.566;38.058;2024-03-25T07:19:51;99223.28;;;8.80;63.85
71126;BME280;58785;55.566;38.058;2024-03-25T07:22:18;99227.13;;;8.78;63.39
71126;BME280;58785;55.566;38.058;2024-03-25T07:24:45;99231.25;;;8.72;63.83
71126;BME280;58785;55.566;38.058;2024-03-25T07:27:10;99235.19;;;8.68;63.41
71126;BME280;58785;55.566;38.058;2024-03-25T07:29:37;99230.38;;;8.63;63.71
71126;BME280;58785;55.566;38.058;2024-03-25T07:32:02;99241.78;;;8.82;63.26
71126;BME280;58785;55.566;38.058;2024-03-25T07:34:28;99246.81;;;8.93;62.69
71126;BME280;58785;55.566;38.058;2024-03-25T07:36:54;99241.84;;;8.98;62.25
71126;BME280;58785;55.566;38.058;2024-03-25T07:39:20;99245.47;;;9.31;61.81
71126;BME280;58785;55.566;38.058;2024-03-25T07:41:49;99251.94;;;9.29;61.26
71126;BME280;58785;55.566;38.058;2024-03-25T07:44:15;99250.09;;;9.21;61.64
71126;BME280;58785;55.566;38.058;2024-03-25T07:46:41;99244.13;;;9.27;61.04
71126;BME280;58785;55.566;38.058;2024-03-25T07:49:07;99251.16;;;9.36;60.97
71126;BME280;58785;55.566;38.058;2024-03-25T07:51:34;99248.66;;;9.35;61.22
71126;BME280;58785;55.566;38.058;2024-03-25T07:54:01;99256.47;;;9.36;61.78
71126;BME280;58785;55.566;38.058;2024-03-25T07:56:27;99263.84;;;9.50;60.65
71126;BME280;58785;55.566;38.058;2024-03-25T07:58:54;99261.75;;;9.78;60.15
71126;BME280;58785;55.566;38.058;2024-03-25T08:01:20;99265.06;;;9.80;59.20
71126;BME280;58785;55.566;38.058;2024-03-25T08:03:45;99258.78;;;9.98;59.80
71126;BME280;58785;55.566;38.058;2024-03-25T08:06:11;99270.19;;;10.24;59.21
71126;BME280;58785;55.566;38.058;2024-03-25T08:08:37;99265.16;;;10.38;59.44
71126;BME280;58785;55.566;38.058;2024-03-25T08:11:02;99267.50;;;10.49;58.65
71126;BME280;58785;55.566;38.058;2024-03-25T08:13:28;99272.34;;;10.53;59.13
71126;BME280;58785;55.566;38.058;2024-03-25T08:15:54;99270.84;;;10.43;59.20
71126;BME280;58785;55.566;38.058;2024-03-25T08:18:20;99271.50;;;10.45;58.53
71126;BME280;58785;55.566;38.058;2024-03-25T08:20:45;99271.66;;;10.59;58.71
71126;BME280;58785;55.566;38.058;2024-03-25T08:23:11;99260.47;;;10.72;58.44
71126;BME280;58785;55.566;38.058;2024-03-25T08:25:37;99265.97;;;10.71;58.48
71126;BME280;58785;55.566;38.058;2024-03-25T08:28:03;99272.16;;;10.63;58.24
71126;BME280;58785;55.566;38.058;2024-03-25T08:30:28;99274.19;;;10.53;58.39
71126;BME280;58785;55.566;38.058;2024-03-25T08:32:54;99283.00;;;10.37;58.20
71126;BME280;58785;55.566;38.058;2024-03-25T08:35:20;99281.69;;;10.33;59.60
71126;BME280;58785;55.566;38.058;2024-03-25T08:37:45;99282.47;;;10.42;59.28
71126;BME280;58785;55.566;38.058;2024-03-25T08:40:11;99277.81;;;10.68;58.52
71126;BME280;58785;55.566;38.058;2024-03-25T08:42:37;99280.63;;;10.83;57.89
71126;BME280;58785;55.566;38.058;2024-03-25T08:45:03;99273.59;;;10.90;57.80
71126;BME280;58785;55.566;38.058;2024-03-25T08:47:31;99277.09;;;10.90;57.03
71126;BME280;58785;55.566;38.058;2024-03-25T08:49:56;99278.06;;;11.06;57.18
71126;BME280;58785;55.566;38.058;2024-03-25T08:52:22;99280.47;;;11.32;56.81
71126;BME280;58785;55.566;38.058;2024-03-25T08:54:48;99276.88;;;11.56;55.94
71126;BME280;58785;55.566;38.058;2024-03-25T08:57:14;99275.28;;;11.38;55.31
71126;BME280;58785;55.566;38.058;2024-03-25T08:59:40;99287.44;;;11.41;55.79
71126;BME280;58785;55.566;38.058;2024-03-25T09:02:06;99289.28;;;11.40;55.61
71126;BME280;58785;55.566;38.058;2024-03-25T09:04:33;99293.56;;;11.10;55.95
71126;BME280;58785;55.566;38.058;2024-03-25T09:07:00;99303.94;;;10.89;57.04
71126;BME280;58785;55.566;38.058;2024-03-25T09:09:26;99300.16;;;10.59;56.90
71126;BME280;58785;55.566;38.058;2024-03-25T09:12:10;99302.09;;;10.16;57.32
71126;BME280;58785;55.566;38.058;2024-03-25T09:14:36;99306.06;;;9.96;57.35
71126;BME280;58785;55.566;38.058;2024-03-25T09:17:04;99302.38;;;9.89;56.86
71126;BME280;58785;55.566;38.058;2024-03-25T09:19:30;99312.72;;;10.00;56.78
71126;BME280;58785;55.566;38.058;2024-03-25T09:21:56;99310.84;;;9.76;56.88
71126;BME280;58785;55.566;38.058;2024-03-25T09:24:21;99312.75;;;9.58;57.66
71126;BME280;58785;55.566;38.058;2024-03-25T09:26:50;99310.09;;;9.58;57.88
71126;BME280;58785;55.566;38.058;2024-03-25T09:29:15;99313.44;;;9.60;58.16
71126;BME280;58785;55.566;38.058;2024-03-25T09:31:41;99303.63;;;9.60;57.69
71126;BME280;58785;55.566;38.058;2024-03-25T09:34:08;99313.31;;;9.69;57.49
71126;BME280;58785;55.566;38.058;2024-03-25T09:36:33;99317.00;;;9.76;57.49
71126;BME280;58785;55.566;38.058;2024-03-25T09:38:59;99309.19;;;9.75;57.25
71126;BME280;58785;55.566;38.058;2024-03-25T09:41:25;99328.56;;;9.59;56.60
71126;BME280;58785;55.566;38.058;2024-03-25T09:43:56;99317.28;;;9.65;57.55
71126;BME280;58785;55.566;38.058;2024-03-25T09:46:23;99312.69;;;9.92;57.54
71126;BME280;58785;55.566;38.058;2024-03-25T09:48:52;99305.56;;;10.00;56.84
71126;BME280;58785;55.566;38.058;2024-03-25T09:51:19;99309.34;;;9.73;57.10
71126;BME280;58785;55.566;38.058;2024-03-25T09:53:45;99317.34;;;9.39;57.48
71126;BME280;58785;55.566;38.058;2024-03-25T09:56:14;99323.66;;;9.04;58.27
71126;BME280;58785;55.566;38.058;2024-03-25T09:58:42;99330.81;;;9.04;58.09
71126;BME280;58785;55.566;38.058;2024-03-25T10:01:09;99325.81;;;9.09;57.87
71126;BME280;58785;55.566;38.058;2024-03-25T10:03:35;99323.84;;;9.11;57.63
71126;BME280;58785;55.566;38.058;2024-03-25T10:06:01;99330.81;;;9.04;57.11
71126;BME280;58785;55.566;38.058;2024-03-25T10:08:26;99325.53;;;9.12;57.41
71126;BME280;58785;55.566;38.058;2024-03-25T10:10:56;99332.41;;;9.23;57.88
71126;BME280;58785;55.566;38.058;2024-03-25T10:13:22;99327.66;;;9.34;57.63
71126;BME280;58785;55.566;38.058;2024-03-25T10:15:49;99323.34;;;9.07;57.63
71126;BME280;58785;55.566;38.058;2024-03-25T10:18:15;99333.50;;;8.86;57.62
71126;BME280;58785;55.566;38.058;2024-03-25T10:20:59;99329.19;;;8.85;57.80
71126;BME280;58785;55.566;38.058;2024-03-25T10:23:25;99329.75;;;8.97;58.07
71126;BME280;58785;55.566;38.058;2024-03-25T10:25:54;99325.22;;;9.15;57.78
71126;BME280;58785;55.566;38.058;2024-03-25T10:28:21;99321.94;;;9.29;57.23
71126;BME280;58785;55.566;38.058;2024-03-25T10:30:46;99314.50;;;9.41;57.35
71126;BME280;58785;55.566;38.058;2024-03-25T10:33:12;99323.75;;;9.55;56.99
71126;BME280;58785;55.566;38.058;2024-03-25T10:35:39;99325.13;;;9.67;57.07
71126;BME280;58785;55.566;38.058;2024-03-25T10:38:09;99318.03;;;9.84;56.84
71126;BME280;58785;55.566;38.058;2024-03-25T10:40:39;99318.88;;;9.92;56.37
71126;BME280;58785;55.566;38.058;2024-03-25T10:43:07;99328.69;;;10.00;56.30
71126;BME280;58785;55.566;38.058;2024-03-25T10:45:35;99321.69;;;9.91;56.25
71126;BME280;58785;55.566;38.058;2024-03-25T10:48:15;99315.84;;;9.79;56.03
71126;BME280;58785;55.566;38.058;2024-03-25T10:50:43;99332.50;;;9.89;56.39
71126;BME280;58785;55.566;38.058;2024-03-25T10:53:14;99335.72;;;10.09;55.59
71126;BME280;58785;55.566;38.058;2024-03-25T10:55:45;99329.94;;;10.22;55.73
71126;BME280;58785;55.566;38.058;2024-03-25T10:58:15;99329.56;;;10.17;55.64
71126;BME280;58785;55.566;38.058;2024-03-25T11:00:42;99340.22;;;10.08;56.10
71126;BME280;58785;55.566;38.058;2024-03-25T11:03:09;99333.03;;;10.01;56.63
71126;BME280;58785;55.566;38.058;2024-03-25T11:05:36;99342.84;;;10.00;56.74
71126;BME280;58785;55.566;38.058;2024-03-25T11:08:12;99329.53;;;9.92;56.84
71126;BME280;58785;55.566;38.058;2024-03-25T11:10:41;99336.63;;;9.75;56.97
71126;BME280;58785;55.566;38.058;2024-03-25T11:13:12;99335.97;;;9.73;57.00
71126;BME280;58785;55.566;38.058;2024-03-25T11:15:53;99330.97;;;9.78;57.06
71126;BME280;58785;55.566;38.058;2024-03-25T11:21:09;99334.38;;;10.05;56.56
71126;BME280;58785;55.566;38.058;2024-03-25T11:23:41;99339.03;;;10.11;56.37
71126;BME280;58785;55.566;38.058;2024-03-25T11:26:21;99339.88;;;10.20;56.04
71126;BME280;58785;55.566;38.058;2024-03-25T11:28:51;99351.09;;;10.23;56.03
71126;BME280;58785;55.566;38.058;2024-03-25T11:31:20;99356.56;;;10.22;56.34
71126;BME280;58785;55.566;38.058;2024-03-25T11:33:47;99347.38;;;10.16;56.48
71126;BME280;58785;55.566;38.058;2024-03-25T11:36:13;99354.19;;;10.02;56.02
71126;BME280;58785;55.566;38.058;2024-03-25T11:38:38;99354.66;;;9.98;56.48
71126;BME280;58785;55.566;38.058;2024-03-25T11:41:07;99359.53;;;10.02;56.27
71126;BME280;58785;55.566;38.058;2024-03-25T11:43:33;99346.47;;;9.91;56.44
71126;BME280;58785;55.566;38.058;2024-03-25T11:45:59;99347.47;;;9.90;56.64
71126;BME280;58785;55.566;38.058;2024-03-25T11:48:25;99365.25;;;9.82;56.59
71126;BME280;58785;55.566;38.058;2024-03-25T11:50:51;99369.38;;;9.68;57.50
71126;BME280;58785;55.566;38.058;2024-03-25T11:53:17;99368.31;;;9.53;57.44
71126;BME280;58785;55.566;38.058;2024-03-25T11:55:47;99358.91;;;9.40;57.45
71126;BME280;58785;55.566;38.058;2024-03-25T11:58:13;99373.88;;;9.41;57.44
71126;BME280;58785;55.566;38.058;2024-03-25T12:00:46;99372.19;;;9.32;57.12
71126;BME280;58785;55.566;38.058;2024-03-25T12:03:15;99368.00;;;9.30;57.70
71126;BME280;58785;55.566;38.058;2024-03-25T12:05:41;99368.16;;;9.28;57.67
71126;BME280;58785;55.566;38.058;2024-03-25T12:08:10;99372.44;;;9.21;57.36
71126;BME280;58785;55.566;38.058;2024-03-25T12:10:37;99383.06;;;9.13;57.74
71126;BME280;58785;55.566;38.058;2024-03-25T12:13:22;99377.13;;;9.01;57.82
71126;BME280;58785;55.566;38.058;2024-03-25T12:15:50;99379.94;;;9.00;57.64
71126;BME280;58785;55.566;38.058;2024-03-25T12:18:17;99383.16;;;9.03;57.87
71126;BME280;58785;55.566;38.058;2024-03-25T12:20:47;99387.22;;;9.15;57.67
71126;BME280;58785;55.566;38.058;2024-03-25T12:23:13;99379.75;;;9.19;57.38
71126;BME280;58785;55.566;38.058;2024-03-25T12:25:40;99382.31;;;9.29;56.87
71126;BME280;58785;55.566;38.058;2024-03-25T12:28:09;99391.84;;;9.39;57.11
71126;BME280;58785;55.566;38.058;2024-03-25T12:30:48;99388.41;;;9.47;56.78
71126;BME280;58785;55.566;38.058;2024-03-25T12:33:14;99375.75;;;9.49;56.76
71126;BME280;58785;55.566;38.058;2024-03-25T12:35:39;99380.94;;;9.50;56.97
71126;BME280;58785;55.566;38.058;2024-03-25T12:38:05;99379.59;;;9.46;57.37
71126;BME280;58785;55.566;38.058;2024-03-25T12:40:31;99370.22;;;9.34;56.87
71126;BME280;58785;55.566;38.058;2024-03-25T12:42:57;99383.69;;;9.33;56.96
71126;BME280;58785;55.566;38.058;2024-03-25T12:45:23;99380.19;;;9.32;56.99
71126;BME280;58785;55.566;38.058;2024-03-25T12:47:52;99383.03;;;9.39;56.76
71126;BME280;58785;55.566;38.058;2024-03-25T12:50:18;99383.50;;;9.34;56.89
71126;BME280;58785;55.566;38.058;2024-03-25T12:52:44;99376.63;;;9.24;57.19
71126;BME280;58785;55.566;38.058;2024-03-25T12:55:10;99374.81;;;9.24;57.28
71126;BME280;58785;55.566;38.058;2024-03-25T12:57:36;99384.47;;;9.25;57.28
71126;BME280;58785;55.566;38.058;2024-03-25T13:00:02;99377.75;;;9.21;57.12